sensor_id;sensor_type;location;lat;lon;timestamp;temperature;humidity
52323;DHT22;38263;52.920;6.238;2023-05-07T00:02:35;14.00;99.90
52323;DHT22;38263;52.920;6.238;2023-05-07T00:05:01;14.10;99.90
52323;DHT22;38263;52.920;6.238;2023-05-07T00:12:20;14.10;99.90
52323;DHT22;38263;52.920;6.238;2023-05-07T00:14:45;14.00;99.90
52323;DHT22;38263;52.920;6.238;2023-05-07T00:19:37;14.00;99.90
52323;DHT22;38263;52.920;6.238;2023-05-07T00:29:20;13.90;99.90
52323;DHT22;38263;52.920;6.238;2023-05-07T00:34:12;13.90;99.90
52323;DHT22;38263;52.920;6.238;2023-05-07T00:36:37;14.00;99.90
52323;DHT22;38263;52.920;6.238;2023-05-07T00:43:56;13.80;99.90
52323;DHT22;38263;52.920;6.238;2023-05-07T00:46:22;13.70;99.90
52323;DHT22;38263;52.920;6.238;2023-05-07T00:48:50;13.70;99.90
52323;DHT22;38263;52.920;6.238;2023-05-07T00:51:17;13.60;99.90
52323;DHT22;38263;52.920;6.238;2023-05-07T00:53:42;13.60;99.90
52323;DHT22;38263;52.920;6.238;2023-05-07T01:01:02;13.40;99.90
52323;DHT22;38263;52.920;6.238;2023-05-07T01:05:54;13.60;99.90
52323;DHT22;38263;52.920;6.238;2023-05-07T01:08:22;13.60;99.90
52323;DHT22;38263;52.920;6.238;2023-05-07T01:10:48;13.60;99.90
52323;DHT22;38263;52.920;6.238;2023-05-07T01:13:14;13.40;99.90
52323;DHT22;38263;52.920;6.238;2023-05-07T01:15:40;13.50;99.90
52323;DHT22;38263;52.920;6.238;2023-05-07T01:18:07;13.50;99.90
52323;DHT22;38263;52.920;6.238;2023-05-07T01:23:00;13.50;99.90
52323;DHT22;38263;52.920;6.238;2023-05-07T01:25:26;13.50;99.90
52323;DHT22;38263;52.920;6.238;2023-05-07T01:30:18;13.50;99.90
52323;DHT22;38263;52.920;6.238;2023-05-07T01:32:51;13.50;99.90
52323;DHT22;38263;52.920;6.238;2023-05-07T01:35:20;13.50;99.90
52323;DHT22;38263;52.920;6.238;2023-05-07T01:42:43;13.20;99.90
52323;DHT22;38263;52.920;6.238;2023-05-07T01:45:09;13.30;99.90
52323;DHT22;38263;52.920;6.238;2023-05-07T01:47:36;13.40;99.90
52323;DHT22;38263;52.920;6.238;2023-05-07T01:50:04;13.20;99.90
52323;DHT22;38263;52.920;6.238;2023-05-07T01:52:31;13.20;99.90
52323;DHT22;38263;52.920;6.238;2023-05-07T01:59:48;13.30;99.90
52323;DHT22;38263;52.920;6.238;2023-05-07T02:02:14;13.10;99.90
52323;DHT22;38263;52.920;6.238;2023-05-07T02:21:43;13.00;99.90
52323;DHT22;38263;52.920;6.238;2023-05-07T02:46:07;13.00;99.90
52323;DHT22;38263;52.920;6.238;2023-05-07T02:53:26;12.80;99.90
52323;DHT22;38263;52.920;6.238;2023-05-07T02:55:53;12.70;99.90
52323;DHT22;38263;52.920;6.238;2023-05-07T02:58:19;12.90;99.90
52323;DHT22;38263;52.920;6.238;2023-05-07T03:00:45;12.60;99.90
52323;DHT22;38263;52.920;6.238;2023-05-07T03:12:55;12.80;99.90
52323;DHT22;38263;52.920;6.238;2023-05-07T03:17:47;12.70;99.90
52323;DHT22;38263;52.920;6.238;2023-05-07T03:20:13;12.50;99.90
52323;DHT22;38263;52.920;6.238;2023-05-07T03:25:06;12.60;99.90
52323;DHT22;38263;52.920;6.238;2023-05-07T03:29:57;12.30;99.90
52323;DHT22;38263;52.920;6.238;2023-05-07T03:39:41;12.10;99.90
52323;DHT22;38263;52.920;6.238;2023-05-07T04:04:00;11.90;99.90
52323;DHT22;38263;52.920;6.238;2023-05-07T04:13:45;12.10;99.90
52323;DHT22;38263;52.920;6.238;2023-05-07T04:25:55;11.80;99.90
52323;DHT22;38263;52.920;6.238;2023-05-07T04:43:01;11.90;99.90
52323;DHT22;38263;52.920;6.238;2023-05-07T04:52:45;11.90;99.90
52323;DHT22;38263;52.920;6.238;2023-05-07T05:00:05;11.90;99.90
52323;DHT22;38263;52.920;6.238;2023-05-07T05:07:27;11.80;99.90
52323;DHT22;38263;52.920;6.238;2023-05-07T05:14:45;11.90;99.90
52323;DHT22;38263;52.920;6.238;2023-05-07T05:24:30;11.90;99.90
52323;DHT22;38263;52.920;6.238;2023-05-07T05:26:56;11.90;99.90
52323;DHT22;38263;52.920;6.238;2023-05-07T05:31:47;11.90;99.90
52323;DHT22;38263;52.920;6.238;2023-05-07T05:39:05;12.10;99.90
52323;DHT22;38263;52.920;6.238;2023-05-07T05:41:31;12.00;99.90
52323;DHT22;38263;52.920;6.238;2023-05-07T05:56:06;11.90;99.90
52323;DHT22;38263;52.920;6.238;2023-05-07T06:00:58;12.00;99.90
52323;DHT22;38263;52.920;6.238;2023-05-07T06:18:00;12.10;99.90
52323;DHT22;38263;52.920;6.238;2023-05-07T06:22:52;12.30;99.90
52323;DHT22;38263;52.920;6.238;2023-05-07T06:32:36;12.40;99.90
52323;DHT22;38263;52.920;6.238;2023-05-07T06:35:02;12.40;99.90
52323;DHT22;38263;52.920;6.238;2023-05-07T06:49:37;12.60;99.90
52323;DHT22;38263;52.920;6.238;2023-05-07T07:01:47;12.90;99.90
52323;DHT22;38263;52.920;6.238;2023-05-07T07:04:12;12.90;99.90
52323;DHT22;38263;52.920;6.238;2023-05-07T07:16:22;13.10;99.90
52323;DHT22;38263;52.920;6.238;2023-05-07T07:18:47;13.20;99.90
52323;DHT22;38263;52.920;6.238;2023-05-07T07:30:58;13.60;99.90
52323;DHT22;38263;52.920;6.238;2023-05-07T07:52:53;14.70;99.90
52323;DHT22;38263;52.920;6.238;2023-05-07T07:55:20;14.50;99.90
52323;DHT22;38263;52.920;6.238;2023-05-07T07:57:48;14.50;99.90
52323;DHT22;38263;52.920;6.238;2023-05-07T08:00:15;14.50;99.90
52323;DHT22;38263;52.920;6.238;2023-05-07T08:05:07;14.50;99.90
52323;DHT22;38263;52.920;6.238;2023-05-07T08:12:24;15.00;99.90
52323;DHT22;38263;52.920;6.238;2023-05-07T08:19:42;14.90;99.90
52323;DHT22;38263;52.920;6.238;2023-05-07T08:22:09;15.00;99.90
52323;DHT22;38263;52.920;6.238;2023-05-07T08:29:27;15.10;99.90
52323;DHT22;38263;52.920;6.238;2023-05-07T08:36:45;15.40;99.90
52323;DHT22;38263;52.920;6.238;2023-05-07T08:39:15;15.30;99.90
52323;DHT22;38263;52.920;6.238;2023-05-07T08:41:40;15.20;99.90
52323;DHT22;38263;52.920;6.238;2023-05-07T08:44:12;15.10;99.90
52323;DHT22;38263;52.920;6.238;2023-05-07T08:46:38;15.20;99.90
52323;DHT22;38263;52.920;6.238;2023-05-07T08:49:04;15.30;99.90
52323;DHT22;38263;52.920;6.238;2023-05-07T09:01:15;15.50;99.90
52323;DHT22;38263;52.920;6.238;2023-05-07T09:03:44;15.30;99.90
52323;DHT22;38263;52.920;6.238;2023-05-07T09:06:10;15.60;99.90
52323;DHT22;38263;52.920;6.238;2023-05-07T09:08:36;15.60;99.90
52323;DHT22;38263;52.920;6.238;2023-05-07T09:11:02;15.70;99.90
52323;DHT22;38263;52.920;6.238;2023-05-07T09:13:28;15.70;99.90
52323;DHT22;38263;52.920;6.238;2023-05-07T09:18:20;15.80;99.90
52323;DHT22;38263;52.920;6.238;2023-05-07T09:23:11;15.90;99.90
52323;DHT22;38263;52.920;6.238;2023-05-07T09:28:04;15.70;99.90
52323;DHT22;38263;52.920;6.238;2023-05-07T09:30:32;15.60;99.90
52323;DHT22;38263;52.920;6.238;2023-05-07T09:32:59;15.70;99.90
52323;DHT22;38263;52.920;6.238;2023-05-07T09:35:26;15.90;99.90
52323;DHT22;38263;52.920;6.238;2023-05-07T09:37:59;16.00;99.90
52323;DHT22;38263;52.920;6.238;2023-05-07T09:40:29;15.80;99.90
52323;DHT22;38263;52.920;6.238;2023-05-07T09:42:55;16.00;99.90
52323;DHT22;38263;52.920;6.238;2023-05-07T09:45:22;15.90;99.90
52323;DHT22;38263;52.920;6.238;2023-05-07T09:47:49;16.00;99.90
52323;DHT22;38263;52.920;6.238;2023-05-07T09:50:19;15.90;99.90
52323;DHT22;38263;52.920;6.238;2023-05-07T09:52:47;16.30;99.90
52323;DHT22;38263;52.920;6.238;2023-05-07T09:57:40;16.50;99.90
52323;DHT22;38263;52.920;6.238;2023-05-07T10:00:07;16.60;99.90
52323;DHT22;38263;52.920;6.238;2023-05-07T10:02:35;16.70;99.90
52323;DHT22;38263;52.920;6.238;2023-05-07T10:05:02;16.80;99.90
52323;DHT22;38263;52.920;6.238;2023-05-07T10:07:29;16.90;99.90
52323;DHT22;38263;52.920;6.238;2023-05-07T10:09:55;16.70;99.90
52323;DHT22;38263;52.920;6.238;2023-05-07T10:12:23;16.80;99.90
52323;DHT22;38263;52.920;6.238;2023-05-07T10:14:50;16.70;99.90
52323;DHT22;38263;52.920;6.238;2023-05-07T10:17:17;16.90;99.90
52323;DHT22;38263;52.920;6.238;2023-05-07T10:19:45;16.90;99.90
52323;DHT22;38263;52.920;6.238;2023-05-07T10:22:11;16.90;99.90
52323;DHT22;38263;52.920;6.238;2023-05-07T10:27:10;16.90;99.90
52323;DHT22;38263;52.920;6.238;2023-05-07T10:29:42;16.90;99.90
52323;DHT22;38263;52.920;6.238;2023-05-07T10:34:56;17.00;99.90
52323;DHT22;38263;52.920;6.238;2023-05-07T10:37:25;17.00;99.90
52323;DHT22;38263;52.920;6.238;2023-05-07T10:39:51;16.90;99.90
52323;DHT22;38263;52.920;6.238;2023-05-07T10:42:17;17.30;99.90
52323;DHT22;38263;52.920;6.238;2023-05-07T10:44:43;17.40;99.90
52323;DHT22;38263;52.920;6.238;2023-05-07T10:47:13;17.50;99.90
52323;DHT22;38263;52.920;6.238;2023-05-07T10:52:24;17.80;99.90
52323;DHT22;38263;52.920;6.238;2023-05-07T10:57:43;18.00;99.90
52323;DHT22;38263;52.920;6.238;2023-05-07T11:05:31;17.80;99.90
52323;DHT22;38263;52.920;6.238;2023-05-07T11:07:58;17.90;99.90
52323;DHT22;38263;52.920;6.238;2023-05-07T11:10:56;17.90;99.90
52323;DHT22;38263;52.920;6.238;2023-05-07T11:13:48;17.80;99.90
52323;DHT22;38263;52.920;6.238;2023-05-07T11:16:24;17.90;99.90
52323;DHT22;38263;52.920;6.238;2023-05-07T11:18:55;18.00;99.90
52323;DHT22;38263;52.920;6.238;2023-05-07T11:21:41;18.00;99.90
52323;DHT22;38263;52.920;6.238;2023-05-07T11:24:08;18.20;99.90
52323;DHT22;38263;52.920;6.238;2023-05-07T11:26:48;18.20;99.90
52323;DHT22;38263;52.920;6.238;2023-05-07T11:29:19;18.20;99.90
52323;DHT22;38263;52.920;6.238;2023-05-07T11:31:49;18.30;99.90
52323;DHT22;38263;52.920;6.238;2023-05-07T11:34:15;18.30;99.90
52323;DHT22;38263;52.920;6.238;2023-05-07T11:36:46;18.30;99.90
52323;DHT22;38263;52.920;6.238;2023-05-07T11:39:26;18.30;99.90
52323;DHT22;38263;52.920;6.238;2023-05-07T11:41:51;18.30;99.90
52323;DHT22;38263;52.920;6.238;2023-05-07T11:44:17;18.30;99.90
52323;DHT22;38263;52.920;6.238;2023-05-07T11:46:43;18.20;99.90
52323;DHT22;38263;52.920;6.238;2023-05-07T11:51:35;18.20;99.90
52323;DHT22;38263;52.920;6.238;2023-05-07T11:54:03;18.10;99.90
52323;DHT22;38263;52.920;6.238;2023-05-07T11:56:33;17.90;99.90
52323;DHT22;38263;52.920;6.238;2023-05-07T11:58:59;18.10;99.90
52323;DHT22;38263;52.920;6.238;2023-05-07T12:01:24;18.00;99.90
52323;DHT22;38263;52.920;6.238;2023-05-07T12:06:18;18.30;99.90
52323;DHT22;38263;52.920;6.238;2023-05-07T12:08:44;18.30;99.90
52323;DHT22;38263;52.920;6.238;2023-05-07T12:11:14;18.30;99.90
52323;DHT22;38263;52.920;6.238;2023-05-07T12:13:41;18.30;99.90
52323;DHT22;38263;52.920;6.238;2023-05-07T12:16:07;18.30;99.90
52323;DHT22;38263;52.920;6.238;2023-05-07T12:18:34;18.30;99.90
52323;DHT22;38263;52.920;6.238;2023-05-07T12:21:01;18.40;99.90
52323;DHT22;38263;52.920;6.238;2023-05-07T12:25:53;18.50;99.90
52323;DHT22;38263;52.920;6.238;2023-05-07T12:28:19;18.60;99.90
52323;DHT22;38263;52.920;6.238;2023-05-07T12:30:47;18.70;99.90
52323;DHT22;38263;52.920;6.238;2023-05-07T12:33:24;18.70;99.90
52323;DHT22;38263;52.920;6.238;2023-05-07T12:35:50;18.80;99.90
52323;DHT22;38263;52.920;6.238;2023-05-07T12:38:17;18.80;99.90
52323;DHT22;38263;52.920;6.238;2023-05-07T12:40:44;18.70;99.90
52323;DHT22;38263;52.920;6.238;2023-05-07T12:43:28;18.80;99.90
52323;DHT22;38263;52.920;6.238;2023-05-07T12:45:55;18.80;99.90
52323;DHT22;38263;52.920;6.238;2023-05-07T12:48:21;19.20;99.90
52323;DHT22;38263;52.920;6.238;2023-05-07T12:50:54;19.10;99.90
52323;DHT22;38263;52.920;6.238;2023-05-07T12:53:22;19.40;99.90
52323;DHT22;38263;52.920;6.238;2023-05-07T12:55:49;19.50;99.90
52323;DHT22;38263;52.920;6.238;2023-05-07T12:58:16;19.50;99.90
52323;DHT22;38263;52.920;6.238;2023-05-07T13:00:42;19.60;99.90
52323;DHT22;38263;52.920;6.238;2023-05-07T13:03:09;19.40;99.90
52323;DHT22;38263;52.920;6.238;2023-05-07T13:05:35;19.30;99.90
52323;DHT22;38263;52.920;6.238;2023-05-07T13:08:00;19.00;99.90
52323;DHT22;38263;52.920;6.238;2023-05-07T13:10:27;19.20;99.90
52323;DHT22;38263;52.920;6.238;2023-05-07T13:12:52;19.00;99.90
52323;DHT22;38263;52.920;6.238;2023-05-07T13:15:18;18.90;99.90
52323;DHT22;38263;52.920;6.238;2023-05-07T13:17:44;18.90;99.90
52323;DHT22;38263;52.920;6.238;2023-05-07T13:20:10;18.90;99.90
52323;DHT22;38263;52.920;6.238;2023-05-07T13:22:37;19.00;99.90
52323;DHT22;38263;52.920;6.238;2023-05-07T13:27:28;19.10;99.90
52323;DHT22;38263;52.920;6.238;2023-05-07T13:29:56;19.00;99.90
52323;DHT22;38263;52.920;6.238;2023-05-07T13:32:22;18.90;99.90
52323;DHT22;38263;52.920;6.238;2023-05-07T13:34:47;19.00;99.90
52323;DHT22;38263;52.920;6.238;2023-05-07T13:37:13;18.90;99.90
52323;DHT22;38263;52.920;6.238;2023-05-07T13:39:38;19.00;99.90
52323;DHT22;38263;52.920;6.238;2023-05-07T13:42:04;19.10;99.90
52323;DHT22;38263;52.920;6.238;2023-05-07T13:44:30;19.10;99.90
52323;DHT22;38263;52.920;6.238;2023-05-07T13:46:55;19.40;99.90
52323;DHT22;38263;52.920;6.238;2023-05-07T13:49:21;19.40;99.90
52323;DHT22;38263;52.920;6.238;2023-05-07T13:51:46;20.00;99.90
52323;DHT22;38263;52.920;6.238;2023-05-07T13:54:12;19.80;99.90
52323;DHT22;38263;52.920;6.238;2023-05-07T13:56:37;19.90;99.90
52323;DHT22;38263;52.920;6.238;2023-05-07T13:59:03;20.00;99.90
52323;DHT22;38263;52.920;6.238;2023-05-07T14:01:28;19.60;99.90
52323;DHT22;38263;52.920;6.238;2023-05-07T14:03:56;19.90;99.90
52323;DHT22;38263;52.920;6.238;2023-05-07T14:06:22;19.60;99.90
52323;DHT22;38263;52.920;6.238;2023-05-07T14:08:48;19.80;99.90
52323;DHT22;38263;52.920;6.238;2023-05-07T14:11:13;19.60;99.90
52323;DHT22;38263;52.920;6.238;2023-05-07T14:13:39;19.50;99.90
52323;DHT22;38263;52.920;6.238;2023-05-07T14:16:05;19.60;99.90
52323;DHT22;38263;52.920;6.238;2023-05-07T14:18:30;19.40;99.90
52323;DHT22;38263;52.920;6.238;2023-05-07T14:20:56;19.20;99.90
52323;DHT22;38263;52.920;6.238;2023-05-07T14:23:21;19.50;99.90
52323;DHT22;38263;52.920;6.238;2023-05-07T14:25:52;19.80;99.90
52323;DHT22;38263;52.920;6.238;2023-05-07T14:28:17;20.00;99.90
52323;DHT22;38263;52.920;6.238;2023-05-07T14:30:43;19.60;99.90
52323;DHT22;38263;52.920;6.238;2023-05-07T14:33:09;19.60;99.90
52323;DHT22;38263;52.920;6.238;2023-05-07T14:35:34;19.80;99.90
52323;DHT22;38263;52.920;6.238;2023-05-07T14:38:00;20.10;99.90
52323;DHT22;38263;52.920;6.238;2023-05-07T14:40:26;19.90;99.90
52323;DHT22;38263;52.920;6.238;2023-05-07T14:42:51;20.10;99.90
52323;DHT22;38263;52.920;6.238;2023-05-07T14:45:17;20.00;99.90
52323;DHT22;38263;52.920;6.238;2023-05-07T14:47:42;20.10;99.90
52323;DHT22;38263;52.920;6.238;2023-05-07T14:50:08;20.90;99.90
52323;DHT22;38263;52.920;6.238;2023-05-07T14:52:34;20.10;99.90
52323;DHT22;38263;52.920;6.238;2023-05-07T14:54:59;20.20;99.90
52323;DHT22;38263;52.920;6.238;2023-05-07T14:57:25;20.30;99.90
52323;DHT22;38263;52.920;6.238;2023-05-07T14:59:51;20.00;99.90
52323;DHT22;38263;52.920;6.238;2023-05-07T15:02:16;20.00;99.90
52323;DHT22;38263;52.920;6.238;2023-05-07T15:04:42;20.10;99.90
52323;DHT22;38263;52.920;6.238;2023-05-07T15:07:15;20.20;99.90
52323;DHT22;38263;52.920;6.238;2023-05-07T15:09:44;20.10;99.90
52323;DHT22;38263;52.920;6.238;2023-05-07T15:12:10;19.70;99.90
52323;DHT22;38263;52.920;6.238;2023-05-07T15:14:37;19.70;99.90
52323;DHT22;38263;52.920;6.238;2023-05-07T15:17:03;19.80;99.90
52323;DHT22;38263;52.920;6.238;2023-05-07T15:19:28;19.80;99.90
52323;DHT22;38263;52.920;6.238;2023-05-07T15:21:56;19.70;99.90
52323;DHT22;38263;52.920;6.238;2023-05-07T15:24:23;19.80;99.90
52323;DHT22;38263;52.920;6.238;2023-05-07T15:26:49;19.70;99.90
52323;DHT22;38263;52.920;6.238;2023-05-07T15:29:15;19.70;99.90
52323;DHT22;38263;52.920;6.238;2023-05-07T15:31:40;19.50;99.90
52323;DHT22;38263;52.920;6.238;2023-05-07T15:34:06;19.60;99.90
52323;DHT22;38263;52.920;6.238;2023-05-07T15:36:32;19.70;99.90
52323;DHT22;38263;52.920;6.238;2023-05-07T15:38:57;19.90;99.90
52323;DHT22;38263;52.920;6.238;2023-05-07T15:41:24;19.70;99.90
52323;DHT22;38263;52.920;6.238;2023-05-07T15:43:51;19.50;99.90
52323;DHT22;38263;52.920;6.238;2023-05-07T15:46:18;19.80;99.90
52323;DHT22;38263;52.920;6.238;2023-05-07T15:48:44;19.70;99.90
52323;DHT22;38263;52.920;6.238;2023-05-07T15:51:10;19.30;99.90
52323;DHT22;38263;52.920;6.238;2023-05-07T15:53:36;19.40;99.90
52323;DHT22;38263;52.920;6.238;2023-05-07T15:56:02;19.10;99.90
52323;DHT22;38263;52.920;6.238;2023-05-07T15:58:27;19.50;99.90
52323;DHT22;38263;52.920;6.238;2023-05-07T16:00:53;19.40;99.90
52323;DHT22;38263;52.920;6.238;2023-05-07T16:03:19;18.80;99.90
52323;DHT22;38263;52.920;6.238;2023-05-07T16:05:46;19.00;99.90
52323;DHT22;38263;52.920;6.238;2023-05-07T16:08:12;18.90;99.90
52323;DHT22;38263;52.920;6.238;2023-05-07T16:10:37;19.00;99.90
52323;DHT22;38263;52.920;6.238;2023-05-07T16:13:03;19.10;99.90
52323;DHT22;38263;52.920;6.238;2023-05-07T16:15:29;19.20;99.90
52323;DHT22;38263;52.920;6.238;2023-05-07T16:17:54;19.70;99.90
52323;DHT22;38263;52.920;6.238;2023-05-07T16:20:31;19.20;99.90
52323;DHT22;38263;52.920;6.238;2023-05-07T16:22:57;19.10;99.90
52323;DHT22;38263;52.920;6.238;2023-05-07T16:25:23;19.10;99.90
52323;DHT22;38263;52.920;6.238;2023-05-07T16:27:48;19.00;99.90
52323;DHT22;38263;52.920;6.238;2023-05-07T16:30:14;19.30;99.90
52323;DHT22;38263;52.920;6.238;2023-05-07T16:32:40;19.00;99.90
52323;DHT22;38263;52.920;6.238;2023-05-07T16:35:06;19.00;99.90
52323;DHT22;38263;52.920;6.238;2023-05-07T16:37:32;19.10;99.90
52323;DHT22;38263;52.920;6.238;2023-05-07T16:40:01;19.20;99.90
52323;DHT22;38263;52.920;6.238;2023-05-07T16:42:32;19.30;99.90
52323;DHT22;38263;52.920;6.238;2023-05-07T16:44:57;19.00;99.90
52323;DHT22;38263;52.920;6.238;2023-05-07T16:49:49;19.10;99.90
52323;DHT22;38263;52.920;6.238;2023-05-07T16:54:41;19.10;99.90
52323;DHT22;38263;52.920;6.238;2023-05-07T16:57:06;19.10;99.90
52323;DHT22;38263;52.920;6.238;2023-05-07T16:59:32;18.80;99.90
52323;DHT22;38263;52.920;6.238;2023-05-07T17:01:58;18.90;99.90
52323;DHT22;38263;52.920;6.238;2023-05-07T17:04:23;18.90;99.90
52323;DHT22;38263;52.920;6.238;2023-05-07T17:06:49;19.00;99.90
52323;DHT22;38263;52.920;6.238;2023-05-07T17:09:15;18.90;99.90
52323;DHT22;38263;52.920;6.238;2023-05-07T17:11:40;18.90;99.90
52323;DHT22;38263;52.920;6.238;2023-05-07T17:16:32;18.80;99.90
52323;DHT22;38263;52.920;6.238;2023-05-07T17:18:57;18.80;99.90
52323;DHT22;38263;52.920;6.238;2023-05-07T17:21:23;18.70;99.90
52323;DHT22;38263;52.920;6.238;2023-05-07T17:23:48;18.70;99.90
52323;DHT22;38263;52.920;6.238;2023-05-07T17:26:15;18.60;99.90
52323;DHT22;38263;52.920;6.238;2023-05-07T17:31:07;18.40;99.90
52323;DHT22;38263;52.920;6.238;2023-05-07T17:33:33;18.30;99.90
52323;DHT22;38263;52.920;6.238;2023-05-07T17:35:58;18.30;99.90
52323;DHT22;38263;52.920;6.238;2023-05-07T17:40:53;18.00;99.90
52323;DHT22;38263;52.920;6.238;2023-05-07T17:43:19;18.10;99.90
52323;DHT22;38263;52.920;6.238;2023-05-07T17:45:47;18.30;99.90
52323;DHT22;38263;52.920;6.238;2023-05-07T17:48:12;18.30;99.90
52323;DHT22;38263;52.920;6.238;2023-05-07T17:50:38;18.20;99.90
52323;DHT22;38263;52.920;6.238;2023-05-07T17:53:03;18.10;99.90
52323;DHT22;38263;52.920;6.238;2023-05-07T17:57:58;17.80;99.90
52323;DHT22;38263;52.920;6.238;2023-05-07T18:00:24;18.00;99.90
52323;DHT22;38263;52.920;6.238;2023-05-07T18:02:53;17.90;99.90
52323;DHT22;38263;52.920;6.238;2023-05-07T18:05:18;17.80;99.90
52323;DHT22;38263;52.920;6.238;2023-05-07T18:07:44;17.70;99.90
52323;DHT22;38263;52.920;6.238;2023-05-07T18:10:10;17.40;99.90
52323;DHT22;38263;52.920;6.238;2023-05-07T18:12:35;17.50;99.90
52323;DHT22;38263;52.920;6.238;2023-05-07T18:15:01;17.40;99.90
52323;DHT22;38263;52.920;6.238;2023-05-07T18:22:18;17.40;99.90
52323;DHT22;38263;52.920;6.238;2023-05-07T18:24:44;17.20;99.90
52323;DHT22;38263;52.920;6.238;2023-05-07T18:27:10;17.10;99.90
52323;DHT22;38263;52.920;6.238;2023-05-07T18:34:29;16.80;99.90
52323;DHT22;38263;52.920;6.238;2023-05-07T18:39:21;16.70;99.90
52323;DHT22;38263;52.920;6.238;2023-05-07T18:44:15;16.70;99.90
52323;DHT22;38263;52.920;6.238;2023-05-07T18:46:41;16.50;99.90
52323;DHT22;38263;52.920;6.238;2023-05-07T18:51:34;16.40;99.90
52323;DHT22;38263;52.920;6.238;2023-05-07T18:53:59;16.40;99.90
52323;DHT22;38263;52.920;6.238;2023-05-07T19:06:10;16.00;99.90
52323;DHT22;38263;52.920;6.238;2023-05-07T19:20:47;15.40;99.90
52323;DHT22;38263;52.920;6.238;2023-05-07T19:28:05;15.40;99.90
52323;DHT22;38263;52.920;6.238;2023-05-07T19:32:58;15.10;99.90
52323;DHT22;38263;52.920;6.238;2023-05-07T19:54:54;15.40;99.90
52323;DHT22;38263;52.920;6.238;2023-05-07T19:59:46;15.10;99.90
52323;DHT22;38263;52.920;6.238;2023-05-07T20:02:11;15.00;99.90
52323;DHT22;38263;52.920;6.238;2023-05-07T20:07:04;14.90;99.90
52323;DHT22;38263;52.920;6.238;2023-05-07T20:11:56;15.00;99.90
52323;DHT22;38263;52.920;6.238;2023-05-07T20:24:06;14.70;99.90
52323;DHT22;38263;52.920;6.238;2023-05-07T20:36:16;14.80;99.90
52323;DHT22;38263;52.920;6.238;2023-05-07T20:41:10;14.80;99.90
52323;DHT22;38263;52.920;6.238;2023-05-07T20:46:05;14.70;99.90
52323;DHT22;38263;52.920;6.238;2023-05-07T20:48:32;14.50;99.90
52323;DHT22;38263;52.920;6.238;2023-05-07T20:50:59;14.60;99.90
52323;DHT22;38263;52.920;6.238;2023-05-07T20:53:31;14.50;99.90
52323;DHT22;38263;52.920;6.238;2023-05-07T20:55:58;14.50;99.90
52323;DHT22;38263;52.920;6.238;2023-05-07T21:05:50;14.20;99.90
52323;DHT22;38263;52.920;6.238;2023-05-07T21:18:00;14.00;99.90
52323;DHT22;38263;52.920;6.238;2023-05-07T21:22:51;14.10;99.90
52323;DHT22;38263;52.920;6.238;2023-05-07T21:27:43;14.10;99.90
52323;DHT22;38263;52.920;6.238;2023-05-07T21:30:10;14.00;99.90
52323;DHT22;38263;52.920;6.238;2023-05-07T21:49:37;13.90;99.90
52323;DHT22;38263;52.920;6.238;2023-05-07T21:52:10;14.00;99.90
52323;DHT22;38263;52.920;6.238;2023-05-07T22:09:12;13.60;99.90
52323;DHT22;38263;52.920;6.238;2023-05-07T22:14:04;13.70;99.90
52323;DHT22;38263;52.920;6.238;2023-05-07T22:16:29;13.70;99.90
52323;DHT22;38263;52.920;6.238;2023-05-07T22:21:21;13.70;99.90
52323;DHT22;38263;52.920;6.238;2023-05-07T22:23:48;13.90;99.90
52323;DHT22;38263;52.920;6.238;2023-05-07T22:26:13;13.80;99.90
52323;DHT22;38263;52.920;6.238;2023-05-07T22:28:39;13.80;99.90
52323;DHT22;38263;52.920;6.238;2023-05-07T22:31:05;13.60;99.90
52323;DHT22;38263;52.920;6.238;2023-05-07T22:38:23;13.70;99.90
52323;DHT22;38263;52.920;6.238;2023-05-07T22:43:15;13.70;99.90
52323;DHT22;38263;52.920;6.238;2023-05-07T22:45:40;13.60;99.90
52323;DHT22;38263;52.920;6.238;2023-05-07T22:50:38;13.80;99.90
52323;DHT22;38263;52.920;6.238;2023-05-07T22:53:04;13.80;99.90
52323;DHT22;38263;52.920;6.238;2023-05-07T22:55:30;13.50;99.90
52323;DHT22;38263;52.920;6.238;2023-05-07T23:00:22;13.50;99.90
52323;DHT22;38263;52.920;6.238;2023-05-07T23:05:14;13.60;99.90
52323;DHT22;38263;52.920;6.238;2023-05-07T23:07:40;13.60;99.90
52323;DHT22;38263;52.920;6.238;2023-05-07T23:10:06;13.50;99.90
52323;DHT22;38263;52.920;6.238;2023-05-07T23:12:32;13.40;99.90
52323;DHT22;38263;52.920;6.238;2023-05-07T23:19:49;13.60;99.90
52323;DHT22;38263;52.920;6.238;2023-05-07T23:32:00;13.40;99.90
52323;DHT22;38263;52.920;6.238;2023-05-07T23:34:26;13.40;99.90
52323;DHT22;38263;52.920;6.238;2023-05-07T23:41:44;13.30;99.90
52323;DHT22;38263;52.920;6.238;2023-05-07T23:46:36;13.30;99.90
52323;DHT22;38263;52.920;6.238;2023-05-07T23:49:02;13.20;99.90
